sensor_id;sensor_type;location;lat;lon;timestamp;P1;durP1;ratioP1;P2;durP2;ratioP2
65377;SDS011;51982;51.042;13.806;2022-08-05T00:02:06;5.78;;;2.25;;
65377;SDS011;51982;51.042;13.806;2022-08-05T00:04:31;3.75;;;2.25;;
65377;SDS011;51982;51.042;13.806;2022-08-05T00:06:57;2.73;;;2.30;;
65377;SDS011;51982;51.042;13.806;2022-08-05T00:09:22;5.70;;;2.33;;
65377;SDS011;51982;51.042;13.806;2022-08-05T00:11:47;5.38;;;2.40;;
65377;SDS011;51982;51.042;13.806;2022-08-05T00:14:13;3.85;;;2.20;;
65377;SDS011;51982;51.042;13.806;2022-08-05T00:16:38;6.23;;;2.30;;
65377;SDS011;51982;51.042;13.806;2022-08-05T00:19:03;3.20;;;2.40;;
65377;SDS011;51982;51.042;13.806;2022-08-05T00:21:29;5.00;;;2.13;;
65377;SDS011;51982;51.042;13.806;2022-08-05T00:23:54;2.50;;;2.30;;
65377;SDS011;51982;51.042;13.806;2022-08-05T00:26:20;3.55;;;2.30;;
65377;SDS011;51982;51.042;13.806;2022-08-05T00:28:46;5.53;;;2.40;;
65377;SDS011;51982;51.042;13.806;2022-08-05T00:31:11;3.50;;;2.23;;
65377;SDS011;51982;51.042;13.806;2022-08-05T00:33:37;4.38;;;2.33;;
65377;SDS011;51982;51.042;13.806;2022-08-05T00:36:02;4.87;;;2.13;;
65377;SDS011;51982;51.042;13.806;2022-08-05T00:38:28;3.63;;;2.17;;
65377;SDS011;51982;51.042;13.806;2022-08-05T00:40:54;3.10;;;2.27;;
65377;SDS011;51982;51.042;13.806;2022-08-05T00:43:20;4.47;;;2.50;;
65377;SDS011;51982;51.042;13.806;2022-08-05T00:45:46;4.72;;;2.30;;
65377;SDS011;51982;51.042;13.806;2022-08-05T00:48:16;3.55;;;2.17;;
65377;SDS011;51982;51.042;13.806;2022-08-05T00:50:44;3.00;;;2.22;;
65377;SDS011;51982;51.042;13.806;2022-08-05T00:53:12;3.25;;;2.20;;
65377;SDS011;51982;51.042;13.806;2022-08-05T00:55:42;6.32;;;2.28;;
65377;SDS011;51982;51.042;13.806;2022-08-05T00:58:08;4.00;;;2.30;;
65377;SDS011;51982;51.042;13.806;2022-08-05T01:00:37;3.20;;;2.13;;
65377;SDS011;51982;51.042;13.806;2022-08-05T01:03:02;6.20;;;2.30;;
65377;SDS011;51982;51.042;13.806;2022-08-05T01:05:27;6.80;;;2.23;;
65377;SDS011;51982;51.042;13.806;2022-08-05T01:07:53;4.07;;;2.20;;
65377;SDS011;51982;51.042;13.806;2022-08-05T01:10:20;6.22;;;2.20;;
65377;SDS011;51982;51.042;13.806;2022-08-05T01:12:51;6.28;;;2.30;;
65377;SDS011;51982;51.042;13.806;2022-08-05T01:15:20;6.40;;;2.05;;
65377;SDS011;51982;51.042;13.806;2022-08-05T01:17:52;3.30;;;2.20;;
65377;SDS011;51982;51.042;13.806;2022-08-05T01:25:43;4.47;;;2.30;;
65377;SDS011;51982;51.042;13.806;2022-08-05T01:31:08;3.20;;;2.20;;
65377;SDS011;51982;51.042;13.806;2022-08-05T01:33:41;5.75;;;2.28;;
65377;SDS011;51982;51.042;13.806;2022-08-05T01:36:15;4.22;;;2.40;;
65377;SDS011;51982;51.042;13.806;2022-08-05T01:38:43;2.90;;;2.53;;
65377;SDS011;51982;51.042;13.806;2022-08-05T01:41:11;4.60;;;2.63;;
65377;SDS011;51982;51.042;13.806;2022-08-05T01:43:38;3.63;;;2.40;;
65377;SDS011;51982;51.042;13.806;2022-08-05T01:46:05;5.15;;;2.33;;
65377;SDS011;51982;51.042;13.806;2022-08-05T01:48:31;7.32;;;2.50;;
65377;SDS011;51982;51.042;13.806;2022-08-05T01:50:59;3.47;;;2.70;;
65377;SDS011;51982;51.042;13.806;2022-08-05T01:53:26;3.92;;;2.50;;
65377;SDS011;51982;51.042;13.806;2022-08-05T01:55:52;4.55;;;2.50;;
65377;SDS011;51982;51.042;13.806;2022-08-05T01:58:22;8.43;;;2.65;;
65377;SDS011;51982;51.042;13.806;2022-08-05T02:00:50;3.50;;;2.63;;
65377;SDS011;51982;51.042;13.806;2022-08-05T02:03:18;6.28;;;2.85;;
65377;SDS011;51982;51.042;13.806;2022-08-05T02:05:50;3.63;;;2.50;;
65377;SDS011;51982;51.042;13.806;2022-08-05T02:08:17;8.95;;;2.65;;
65377;SDS011;51982;51.042;13.806;2022-08-05T02:10:45;5.53;;;2.38;;
65377;SDS011;51982;51.042;13.806;2022-08-05T02:13:15;3.55;;;2.53;;
65377;SDS011;51982;51.042;13.806;2022-08-05T02:15:43;7.43;;;2.90;;
65377;SDS011;51982;51.042;13.806;2022-08-05T02:18:24;3.35;;;2.70;;
65377;SDS011;51982;51.042;13.806;2022-08-05T02:21:05;2.97;;;2.60;;
65377;SDS011;51982;51.042;13.806;2022-08-05T02:23:36;5.00;;;2.83;;
65377;SDS011;51982;51.042;13.806;2022-08-05T02:26:04;3.42;;;2.50;;
65377;SDS011;51982;51.042;13.806;2022-08-05T02:28:32;2.75;;;2.28;;
65377;SDS011;51982;51.042;13.806;2022-08-05T02:31:07;4.68;;;2.50;;
65377;SDS011;51982;51.042;13.806;2022-08-05T02:33:35;4.82;;;2.63;;
65377;SDS011;51982;51.042;13.806;2022-08-05T02:36:05;3.63;;;2.85;;
65377;SDS011;51982;51.042;13.806;2022-08-05T02:38:34;4.85;;;2.63;;
65377;SDS011;51982;51.042;13.806;2022-08-05T02:41:00;8.98;;;3.10;;
65377;SDS011;51982;51.042;13.806;2022-08-05T02:43:27;5.45;;;2.50;;
65377;SDS011;51982;51.042;13.806;2022-08-05T02:45:53;5.90;;;2.63;;
65377;SDS011;51982;51.042;13.806;2022-08-05T02:48:19;3.03;;;2.70;;
65377;SDS011;51982;51.042;13.806;2022-08-05T02:50:46;5.10;;;2.50;;
65377;SDS011;51982;51.042;13.806;2022-08-05T02:53:15;3.85;;;2.65;;
65377;SDS011;51982;51.042;13.806;2022-08-05T02:55:42;2.90;;;2.60;;
65377;SDS011;51982;51.042;13.806;2022-08-05T02:58:09;4.75;;;2.70;;
65377;SDS011;51982;51.042;13.806;2022-08-05T03:00:38;5.65;;;2.65;;
65377;SDS011;51982;51.042;13.806;2022-08-05T03:03:04;4.13;;;2.53;;
65377;SDS011;51982;51.042;13.806;2022-08-05T03:05:31;4.82;;;3.00;;
65377;SDS011;51982;51.042;13.806;2022-08-05T03:07:56;3.92;;;2.80;;
65377;SDS011;51982;51.042;13.806;2022-08-05T03:10:21;4.10;;;2.88;;
65377;SDS011;51982;51.042;13.806;2022-08-05T03:12:48;3.55;;;2.50;;
65377;SDS011;51982;51.042;13.806;2022-08-05T03:15:13;5.40;;;3.00;;
65377;SDS011;51982;51.042;13.806;2022-08-05T03:17:39;4.32;;;2.75;;
65377;SDS011;51982;51.042;13.806;2022-08-05T03:20:04;6.07;;;2.90;;
65377;SDS011;51982;51.042;13.806;2022-08-05T03:22:30;4.90;;;3.00;;
65377;SDS011;51982;51.042;13.806;2022-08-05T03:24:56;3.95;;;2.50;;
65377;SDS011;51982;51.042;13.806;2022-08-05T03:27:23;5.00;;;2.90;;
65377;SDS011;51982;51.042;13.806;2022-08-05T03:29:48;6.45;;;2.90;;
65377;SDS011;51982;51.042;13.806;2022-08-05T03:32:14;3.40;;;2.78;;
65377;SDS011;51982;51.042;13.806;2022-08-05T03:34:40;4.53;;;3.10;;
65377;SDS011;51982;51.042;13.806;2022-08-05T03:37:06;4.55;;;2.80;;
65377;SDS011;51982;51.042;13.806;2022-08-05T03:39:32;4.22;;;2.60;;
65377;SDS011;51982;51.042;13.806;2022-08-05T03:41:57;5.33;;;2.93;;
65377;SDS011;51982;51.042;13.806;2022-08-05T03:44:23;4.20;;;2.78;;
65377;SDS011;51982;51.042;13.806;2022-08-05T03:46:49;10.25;;;3.42;;
65377;SDS011;51982;51.042;13.806;2022-08-05T03:49:14;4.90;;;2.67;;
65377;SDS011;51982;51.042;13.806;2022-08-05T03:54:16;7.38;;;2.83;;
65377;SDS011;51982;51.042;13.806;2022-08-05T03:56:44;4.63;;;3.13;;
65377;SDS011;51982;51.042;13.806;2022-08-05T03:59:12;4.68;;;2.88;;
65377;SDS011;51982;51.042;13.806;2022-08-05T04:01:45;8.45;;;3.30;;
65377;SDS011;51982;51.042;13.806;2022-08-05T04:04:13;6.20;;;2.92;;
65377;SDS011;51982;51.042;13.806;2022-08-05T04:06:39;3.38;;;2.85;;
65377;SDS011;51982;51.042;13.806;2022-08-05T04:09:05;4.93;;;3.15;;
65377;SDS011;51982;51.042;13.806;2022-08-05T04:11:32;5.90;;;2.72;;
65377;SDS011;51982;51.042;13.806;2022-08-05T04:13:59;7.72;;;2.83;;
65377;SDS011;51982;51.042;13.806;2022-08-05T04:16:24;3.88;;;3.00;;
65377;SDS011;51982;51.042;13.806;2022-08-05T04:18:50;3.22;;;2.90;;
65377;SDS011;51982;51.042;13.806;2022-08-05T04:21:15;7.05;;;3.05;;
65377;SDS011;51982;51.042;13.806;2022-08-05T04:23:40;9.13;;;3.13;;
65377;SDS011;51982;51.042;13.806;2022-08-05T04:26:07;7.90;;;3.45;;
65377;SDS011;51982;51.042;13.806;2022-08-05T04:28:32;4.85;;;3.30;;
65377;SDS011;51982;51.042;13.806;2022-08-05T04:30:58;7.25;;;3.70;;
65377;SDS011;51982;51.042;13.806;2022-08-05T04:33:23;7.07;;;3.20;;
65377;SDS011;51982;51.042;13.806;2022-08-05T04:35:49;7.30;;;3.43;;
65377;SDS011;51982;51.042;13.806;2022-08-05T04:38:14;6.13;;;3.07;;
65377;SDS011;51982;51.042;13.806;2022-08-05T04:40:39;3.80;;;2.90;;
65377;SDS011;51982;51.042;13.806;2022-08-05T04:43:05;8.05;;;3.30;;
65377;SDS011;51982;51.042;13.806;2022-08-05T04:45:32;8.60;;;3.67;;
65377;SDS011;51982;51.042;13.806;2022-08-05T04:48:11;7.32;;;3.40;;
65377;SDS011;51982;51.042;13.806;2022-08-05T04:50:41;5.32;;;3.22;;
65377;SDS011;51982;51.042;13.806;2022-08-05T04:53:11;8.63;;;3.28;;
65377;SDS011;51982;51.042;13.806;2022-08-05T04:55:38;10.75;;;3.53;;
65377;SDS011;51982;51.042;13.806;2022-08-05T04:58:06;10.32;;;3.60;;
65377;SDS011;51982;51.042;13.806;2022-08-05T05:00:33;9.80;;;3.60;;
65377;SDS011;51982;51.042;13.806;2022-08-05T05:03:01;8.85;;;3.15;;
65377;SDS011;51982;51.042;13.806;2022-08-05T05:05:27;4.43;;;3.20;;
65377;SDS011;51982;51.042;13.806;2022-08-05T05:07:53;8.60;;;2.90;;
65377;SDS011;51982;51.042;13.806;2022-08-05T05:10:29;6.78;;;3.20;;
65377;SDS011;51982;51.042;13.806;2022-08-05T05:12:56;7.07;;;3.40;;
65377;SDS011;51982;51.042;13.806;2022-08-05T05:15:21;12.00;;;3.90;;
65377;SDS011;51982;51.042;13.806;2022-08-05T05:17:47;6.95;;;3.20;;
65377;SDS011;51982;51.042;13.806;2022-08-05T05:20:12;8.23;;;3.35;;
65377;SDS011;51982;51.042;13.806;2022-08-05T05:22:38;7.57;;;3.42;;
65377;SDS011;51982;51.042;13.806;2022-08-05T05:25:04;6.05;;;3.08;;
65377;SDS011;51982;51.042;13.806;2022-08-05T05:27:30;13.52;;;3.90;;
65377;SDS011;51982;51.042;13.806;2022-08-05T05:29:57;8.23;;;2.95;;
65377;SDS011;51982;51.042;13.806;2022-08-05T05:32:22;5.65;;;3.22;;
65377;SDS011;51982;51.042;13.806;2022-08-05T05:34:47;4.47;;;3.22;;
65377;SDS011;51982;51.042;13.806;2022-08-05T05:37:13;7.65;;;3.33;;
65377;SDS011;51982;51.042;13.806;2022-08-05T05:39:39;7.53;;;3.50;;
65377;SDS011;51982;51.042;13.806;2022-08-05T05:42:04;8.52;;;3.63;;
65377;SDS011;51982;51.042;13.806;2022-08-05T05:44:29;9.07;;;3.80;;
65377;SDS011;51982;51.042;13.806;2022-08-05T05:46:55;5.43;;;3.57;;
65377;SDS011;51982;51.042;13.806;2022-08-05T05:49:20;17.80;;;3.95;;
65377;SDS011;51982;51.042;13.806;2022-08-05T05:51:45;5.10;;;3.20;;
65377;SDS011;51982;51.042;13.806;2022-08-05T05:54:10;4.93;;;3.63;;
65377;SDS011;51982;51.042;13.806;2022-08-05T05:56:36;5.03;;;3.07;;
65377;SDS011;51982;51.042;13.806;2022-08-05T05:59:02;8.63;;;3.37;;
65377;SDS011;51982;51.042;13.806;2022-08-05T06:01:30;11.63;;;3.50;;
65377;SDS011;51982;51.042;13.806;2022-08-05T06:03:56;4.97;;;3.28;;
65377;SDS011;51982;51.042;13.806;2022-08-05T06:06:21;9.07;;;3.17;;
65377;SDS011;51982;51.042;13.806;2022-08-05T06:08:46;12.73;;;3.67;;
65377;SDS011;51982;51.042;13.806;2022-08-05T06:11:11;7.03;;;3.53;;
65377;SDS011;51982;51.042;13.806;2022-08-05T06:13:37;6.33;;;3.40;;
65377;SDS011;51982;51.042;13.806;2022-08-05T06:16:02;11.23;;;3.30;;
65377;SDS011;51982;51.042;13.806;2022-08-05T06:18:27;7.85;;;3.65;;
65377;SDS011;51982;51.042;13.806;2022-08-05T06:20:52;5.67;;;3.50;;
65377;SDS011;51982;51.042;13.806;2022-08-05T06:23:18;4.47;;;3.30;;
65377;SDS011;51982;51.042;13.806;2022-08-05T06:25:43;5.17;;;3.40;;
65377;SDS011;51982;51.042;13.806;2022-08-05T06:28:08;7.07;;;3.17;;
65377;SDS011;51982;51.042;13.806;2022-08-05T06:30:33;8.73;;;3.70;;
65377;SDS011;51982;51.042;13.806;2022-08-05T06:32:58;8.33;;;3.57;;
65377;SDS011;51982;51.042;13.806;2022-08-05T06:35:24;6.93;;;3.30;;
65377;SDS011;51982;51.042;13.806;2022-08-05T06:37:49;6.63;;;3.63;;
65377;SDS011;51982;51.042;13.806;2022-08-05T06:40:14;5.10;;;3.30;;
65377;SDS011;51982;51.042;13.806;2022-08-05T06:42:40;14.18;;;3.30;;
65377;SDS011;51982;51.042;13.806;2022-08-05T06:45:06;8.53;;;3.40;;
65377;SDS011;51982;51.042;13.806;2022-08-05T06:47:31;8.27;;;3.72;;
65377;SDS011;51982;51.042;13.806;2022-08-05T06:49:57;12.27;;;4.43;;
65377;SDS011;51982;51.042;13.806;2022-08-05T06:52:22;9.13;;;3.20;;
65377;SDS011;51982;51.042;13.806;2022-08-05T06:54:47;10.50;;;3.50;;
65377;SDS011;51982;51.042;13.806;2022-08-05T06:57:12;10.23;;;3.30;;
65377;SDS011;51982;51.042;13.806;2022-08-05T06:59:39;5.55;;;3.40;;
65377;SDS011;51982;51.042;13.806;2022-08-05T07:02:05;8.52;;;3.38;;
65377;SDS011;51982;51.042;13.806;2022-08-05T07:04:30;7.13;;;2.85;;
65377;SDS011;51982;51.042;13.806;2022-08-05T07:06:56;6.67;;;2.87;;
65377;SDS011;51982;51.042;13.806;2022-08-05T07:09:21;7.40;;;2.70;;
65377;SDS011;51982;51.042;13.806;2022-08-05T07:11:46;10.20;;;2.90;;
65377;SDS011;51982;51.042;13.806;2022-08-05T07:14:11;5.63;;;2.40;;
65377;SDS011;51982;51.042;13.806;2022-08-05T07:16:56;5.53;;;2.50;;
65377;SDS011;51982;51.042;13.806;2022-08-05T07:19:25;8.00;;;2.55;;
65377;SDS011;51982;51.042;13.806;2022-08-05T07:21:51;3.63;;;2.40;;
65377;SDS011;51982;51.042;13.806;2022-08-05T07:24:17;6.35;;;2.45;;
65377;SDS011;51982;51.042;13.806;2022-08-05T07:26:43;6.45;;;2.45;;
65377;SDS011;51982;51.042;13.806;2022-08-05T07:29:08;12.32;;;2.55;;
65377;SDS011;51982;51.042;13.806;2022-08-05T07:31:34;5.75;;;2.55;;
65377;SDS011;51982;51.042;13.806;2022-08-05T07:34:00;10.95;;;2.40;;
65377;SDS011;51982;51.042;13.806;2022-08-05T07:36:25;13.63;;;3.45;;
65377;SDS011;51982;51.042;13.806;2022-08-05T07:38:51;7.47;;;2.70;;
65377;SDS011;51982;51.042;13.806;2022-08-05T07:41:17;10.40;;;2.70;;
65377;SDS011;51982;51.042;13.806;2022-08-05T07:43:44;10.10;;;3.30;;
65377;SDS011;51982;51.042;13.806;2022-08-05T07:46:10;7.53;;;3.47;;
65377;SDS011;51982;51.042;13.806;2022-08-05T07:48:35;6.28;;;3.35;;
65377;SDS011;51982;51.042;13.806;2022-08-05T07:51:00;6.43;;;3.53;;
65377;SDS011;51982;51.042;13.806;2022-08-05T07:53:25;7.57;;;3.27;;
65377;SDS011;51982;51.042;13.806;2022-08-05T07:55:52;8.10;;;3.70;;
65377;SDS011;51982;51.042;13.806;2022-08-05T07:58:18;9.32;;;3.40;;
65377;SDS011;51982;51.042;13.806;2022-08-05T08:00:43;8.20;;;3.42;;
65377;SDS011;51982;51.042;13.806;2022-08-05T08:03:09;13.60;;;3.65;;
65377;SDS011;51982;51.042;13.806;2022-08-05T08:05:35;8.45;;;3.50;;
65377;SDS011;51982;51.042;13.806;2022-08-05T08:08:01;8.52;;;3.38;;
65377;SDS011;51982;51.042;13.806;2022-08-05T08:10:27;7.93;;;3.45;;
65377;SDS011;51982;51.042;13.806;2022-08-05T08:12:53;14.57;;;3.63;;
65377;SDS011;51982;51.042;13.806;2022-08-05T08:15:19;7.70;;;3.47;;
65377;SDS011;51982;51.042;13.806;2022-08-05T08:17:44;12.27;;;3.53;;
65377;SDS011;51982;51.042;13.806;2022-08-05T08:20:09;6.72;;;3.45;;
65377;SDS011;51982;51.042;13.806;2022-08-05T08:22:35;8.18;;;3.50;;
65377;SDS011;51982;51.042;13.806;2022-08-05T08:25:00;7.45;;;3.30;;
65377;SDS011;51982;51.042;13.806;2022-08-05T08:27:25;6.90;;;3.38;;
65377;SDS011;51982;51.042;13.806;2022-08-05T08:29:51;7.33;;;3.03;;
65377;SDS011;51982;51.042;13.806;2022-08-05T08:32:16;7.27;;;3.37;;
65377;SDS011;51982;51.042;13.806;2022-08-05T08:34:41;10.80;;;3.15;;
65377;SDS011;51982;51.042;13.806;2022-08-05T08:37:07;8.27;;;2.90;;
65377;SDS011;51982;51.042;13.806;2022-08-05T08:39:32;11.70;;;3.53;;
65377;SDS011;51982;51.042;13.806;2022-08-05T08:41:58;7.88;;;3.00;;
65377;SDS011;51982;51.042;13.806;2022-08-05T08:44:26;10.57;;;3.10;;
65377;SDS011;51982;51.042;13.806;2022-08-05T08:46:53;5.47;;;3.33;;
65377;SDS011;51982;51.042;13.806;2022-08-05T08:49:20;9.35;;;3.20;;
65377;SDS011;51982;51.042;13.806;2022-08-05T08:51:47;10.05;;;3.35;;
65377;SDS011;51982;51.042;13.806;2022-08-05T08:54:17;12.35;;;3.38;;
65377;SDS011;51982;51.042;13.806;2022-08-05T08:56:42;8.77;;;3.10;;
65377;SDS011;51982;51.042;13.806;2022-08-05T08:59:08;4.70;;;3.03;;
65377;SDS011;51982;51.042;13.806;2022-08-05T09:01:35;8.07;;;3.20;;
65377;SDS011;51982;51.042;13.806;2022-08-05T09:04:01;12.00;;;3.20;;
65377;SDS011;51982;51.042;13.806;2022-08-05T09:06:27;4.17;;;3.10;;
65377;SDS011;51982;51.042;13.806;2022-08-05T09:08:54;6.40;;;3.17;;
65377;SDS011;51982;51.042;13.806;2022-08-05T09:11:20;6.68;;;2.88;;
65377;SDS011;51982;51.042;13.806;2022-08-05T09:13:45;6.90;;;3.10;;
65377;SDS011;51982;51.042;13.806;2022-08-05T09:16:13;5.85;;;3.13;;
65377;SDS011;51982;51.042;13.806;2022-08-05T09:18:39;7.63;;;3.17;;
65377;SDS011;51982;51.042;13.806;2022-08-05T09:21:04;5.75;;;3.25;;
65377;SDS011;51982;51.042;13.806;2022-08-05T09:23:29;5.35;;;3.05;;
65377;SDS011;51982;51.042;13.806;2022-08-05T09:26:08;5.90;;;3.00;;
65377;SDS011;51982;51.042;13.806;2022-08-05T09:28:36;11.35;;;2.97;;
65377;SDS011;51982;51.042;13.806;2022-08-05T09:31:06;7.47;;;3.00;;
65377;SDS011;51982;51.042;13.806;2022-08-05T09:33:45;9.57;;;3.25;;
65377;SDS011;51982;51.042;13.806;2022-08-05T09:36:14;6.80;;;3.00;;
65377;SDS011;51982;51.042;13.806;2022-08-05T09:39:00;8.07;;;3.25;;
65377;SDS011;51982;51.042;13.806;2022-08-05T09:41:26;8.10;;;3.35;;
65377;SDS011;51982;51.042;13.806;2022-08-05T09:43:52;6.97;;;2.97;;
65377;SDS011;51982;51.042;13.806;2022-08-05T09:46:27;4.47;;;3.20;;
65377;SDS011;51982;51.042;13.806;2022-08-05T09:48:55;9.70;;;3.30;;
65377;SDS011;51982;51.042;13.806;2022-08-05T09:51:31;9.10;;;3.13;;
65377;SDS011;51982;51.042;13.806;2022-08-05T09:53:58;4.97;;;3.00;;
65377;SDS011;51982;51.042;13.806;2022-08-05T09:56:25;6.68;;;3.15;;
65377;SDS011;51982;51.042;13.806;2022-08-05T09:59:08;4.57;;;3.10;;
65377;SDS011;51982;51.042;13.806;2022-08-05T10:01:36;5.90;;;3.20;;
65377;SDS011;51982;51.042;13.806;2022-08-05T10:04:06;7.85;;;3.08;;
65377;SDS011;51982;51.042;13.806;2022-08-05T10:06:34;9.30;;;3.20;;
65377;SDS011;51982;51.042;13.806;2022-08-05T10:09:16;5.82;;;3.08;;
65377;SDS011;51982;51.042;13.806;2022-08-05T10:11:43;7.03;;;3.30;;
65377;SDS011;51982;51.042;13.806;2022-08-05T10:16:47;12.63;;;3.60;;
65377;SDS011;51982;51.042;13.806;2022-08-05T10:19:13;14.73;;;3.67;;
65377;SDS011;51982;51.042;13.806;2022-08-05T10:21:39;8.25;;;3.22;;
65377;SDS011;51982;51.042;13.806;2022-08-05T10:24:05;7.60;;;3.30;;
65377;SDS011;51982;51.042;13.806;2022-08-05T10:26:31;4.97;;;3.35;;
65377;SDS011;51982;51.042;13.806;2022-08-05T10:28:56;4.68;;;3.33;;
65377;SDS011;51982;51.042;13.806;2022-08-05T10:31:21;7.10;;;3.57;;
65377;SDS011;51982;51.042;13.806;2022-08-05T10:33:50;10.30;;;3.35;;
65377;SDS011;51982;51.042;13.806;2022-08-05T10:36:16;6.70;;;3.05;;
65377;SDS011;51982;51.042;13.806;2022-08-05T10:38:43;5.00;;;3.20;;
65377;SDS011;51982;51.042;13.806;2022-08-05T10:41:12;9.55;;;3.50;;
65377;SDS011;51982;51.042;13.806;2022-08-05T10:43:52;8.13;;;3.60;;
65377;SDS011;51982;51.042;13.806;2022-08-05T10:46:18;6.80;;;3.28;;
65377;SDS011;51982;51.042;13.806;2022-08-05T10:48:46;5.07;;;3.67;;
65377;SDS011;51982;51.042;13.806;2022-08-05T10:53:53;6.35;;;3.30;;
65377;SDS011;51982;51.042;13.806;2022-08-05T10:56:20;8.05;;;3.30;;
65377;SDS011;51982;51.042;13.806;2022-08-05T11:01:31;9.40;;;3.50;;
65377;SDS011;51982;51.042;13.806;2022-08-05T11:04:03;8.02;;;3.53;;
65377;SDS011;51982;51.042;13.806;2022-08-05T11:09:21;6.03;;;3.33;;
65377;SDS011;51982;51.042;13.806;2022-08-05T11:11:51;4.60;;;3.35;;
65377;SDS011;51982;51.042;13.806;2022-08-05T11:14:27;6.53;;;3.47;;
65377;SDS011;51982;51.042;13.806;2022-08-05T11:19:48;6.00;;;3.38;;
65377;SDS011;51982;51.042;13.806;2022-08-05T11:30:21;5.60;;;3.22;;
65377;SDS011;51982;51.042;13.806;2022-08-05T11:32:46;5.18;;;3.58;;
65377;SDS011;51982;51.042;13.806;2022-08-05T11:38:14;9.57;;;3.38;;
65377;SDS011;51982;51.042;13.806;2022-08-05T11:40:56;9.37;;;3.60;;
65377;SDS011;51982;51.042;13.806;2022-08-05T11:43:23;4.75;;;3.67;;
65377;SDS011;51982;51.042;13.806;2022-08-05T11:45:48;5.83;;;3.57;;
65377;SDS011;51982;51.042;13.806;2022-08-05T11:48:13;8.65;;;3.25;;
65377;SDS011;51982;51.042;13.806;2022-08-05T11:50:39;6.70;;;3.53;;
65377;SDS011;51982;51.042;13.806;2022-08-05T11:53:05;8.30;;;3.38;;
65377;SDS011;51982;51.042;13.806;2022-08-05T11:55:31;13.23;;;3.28;;
65377;SDS011;51982;51.042;13.806;2022-08-05T11:57:56;13.80;;;3.63;;
65377;SDS011;51982;51.042;13.806;2022-08-05T12:00:25;6.70;;;3.67;;
65377;SDS011;51982;51.042;13.806;2022-08-05T12:02:51;7.63;;;3.10;;
65377;SDS011;51982;51.042;13.806;2022-08-05T12:05:23;4.07;;;3.17;;
65377;SDS011;51982;51.042;13.806;2022-08-05T12:07:50;8.50;;;3.15;;
65377;SDS011;51982;51.042;13.806;2022-08-05T12:10:16;8.67;;;3.27;;
65377;SDS011;51982;51.042;13.806;2022-08-05T12:12:43;4.15;;;3.05;;
65377;SDS011;51982;51.042;13.806;2022-08-05T12:15:17;6.35;;;2.90;;
65377;SDS011;51982;51.042;13.806;2022-08-05T12:17:43;9.18;;;3.00;;
65377;SDS011;51982;51.042;13.806;2022-08-05T12:20:10;8.68;;;2.80;;
65377;SDS011;51982;51.042;13.806;2022-08-05T12:22:36;8.88;;;3.00;;
65377;SDS011;51982;51.042;13.806;2022-08-05T12:25:02;5.07;;;2.50;;
65377;SDS011;51982;51.042;13.806;2022-08-05T12:27:28;5.88;;;2.50;;
65377;SDS011;51982;51.042;13.806;2022-08-05T12:30:06;7.93;;;3.00;;
65377;SDS011;51982;51.042;13.806;2022-08-05T12:32:34;5.13;;;2.42;;
65377;SDS011;51982;51.042;13.806;2022-08-05T12:37:33;4.32;;;2.58;;
65377;SDS011;51982;51.042;13.806;2022-08-05T12:39:59;7.53;;;2.47;;
65377;SDS011;51982;51.042;13.806;2022-08-05T12:42:27;6.10;;;2.38;;
65377;SDS011;51982;51.042;13.806;2022-08-05T12:44:59;5.95;;;2.67;;
65377;SDS011;51982;51.042;13.806;2022-08-05T12:47:32;3.42;;;2.70;;
65377;SDS011;51982;51.042;13.806;2022-08-05T12:49:58;4.25;;;2.47;;
65377;SDS011;51982;51.042;13.806;2022-08-05T12:52:25;3.72;;;2.20;;
65377;SDS011;51982;51.042;13.806;2022-08-05T12:54:50;6.40;;;2.30;;
65377;SDS011;51982;51.042;13.806;2022-08-05T12:57:16;3.72;;;2.17;;
65377;SDS011;51982;51.042;13.806;2022-08-05T12:59:43;4.63;;;2.45;;
65377;SDS011;51982;51.042;13.806;2022-08-05T13:02:22;3.63;;;2.60;;
65377;SDS011;51982;51.042;13.806;2022-08-05T13:04:49;5.53;;;2.60;;
65377;SDS011;51982;51.042;13.806;2022-08-05T13:07:17;4.45;;;2.45;;
65377;SDS011;51982;51.042;13.806;2022-08-05T13:09:51;6.40;;;2.40;;
65377;SDS011;51982;51.042;13.806;2022-08-05T13:12:18;2.80;;;2.28;;
65377;SDS011;51982;51.042;13.806;2022-08-05T13:14:46;8.40;;;2.90;;
65377;SDS011;51982;51.042;13.806;2022-08-05T13:17:18;10.98;;;2.40;;
65377;SDS011;51982;51.042;13.806;2022-08-05T13:20:07;5.93;;;2.67;;
65377;SDS011;51982;51.042;13.806;2022-08-05T13:22:40;11.82;;;2.65;;
65377;SDS011;51982;51.042;13.806;2022-08-05T13:25:08;4.35;;;2.30;;
65377;SDS011;51982;51.042;13.806;2022-08-05T13:27:36;7.60;;;2.42;;
65377;SDS011;51982;51.042;13.806;2022-08-05T13:30:03;3.25;;;2.30;;
65377;SDS011;51982;51.042;13.806;2022-08-05T13:32:30;6.55;;;2.42;;
65377;SDS011;51982;51.042;13.806;2022-08-05T13:34:56;5.43;;;2.40;;
65377;SDS011;51982;51.042;13.806;2022-08-05T13:37:22;6.50;;;2.42;;
65377;SDS011;51982;51.042;13.806;2022-08-05T13:39:48;5.32;;;2.53;;
65377;SDS011;51982;51.042;13.806;2022-08-05T13:42:14;4.07;;;2.30;;
65377;SDS011;51982;51.042;13.806;2022-08-05T13:44:39;4.72;;;2.25;;
65377;SDS011;51982;51.042;13.806;2022-08-05T13:47:05;5.63;;;2.20;;
65377;SDS011;51982;51.042;13.806;2022-08-05T13:49:30;3.47;;;2.08;;
65377;SDS011;51982;51.042;13.806;2022-08-05T13:51:55;8.90;;;2.30;;
65377;SDS011;51982;51.042;13.806;2022-08-05T13:54:21;6.93;;;2.20;;
65377;SDS011;51982;51.042;13.806;2022-08-05T13:56:46;5.95;;;2.38;;
65377;SDS011;51982;51.042;13.806;2022-08-05T13:59:11;4.43;;;2.10;;
65377;SDS011;51982;51.042;13.806;2022-08-05T14:01:37;4.15;;;2.13;;
65377;SDS011;51982;51.042;13.806;2022-08-05T14:04:03;6.20;;;2.30;;
65377;SDS011;51982;51.042;13.806;2022-08-05T14:06:47;3.53;;;2.45;;
65377;SDS011;51982;51.042;13.806;2022-08-05T14:09:12;5.30;;;2.20;;
65377;SDS011;51982;51.042;13.806;2022-08-05T14:11:37;2.30;;;2.00;;
65377;SDS011;51982;51.042;13.806;2022-08-05T14:14:05;5.63;;;2.22;;
65377;SDS011;51982;51.042;13.806;2022-08-05T14:16:33;3.53;;;1.95;;
65377;SDS011;51982;51.042;13.806;2022-08-05T14:18:59;6.07;;;2.00;;
65377;SDS011;51982;51.042;13.806;2022-08-05T14:21:24;3.42;;;2.05;;
65377;SDS011;51982;51.042;13.806;2022-08-05T14:23:50;4.65;;;2.22;;
65377;SDS011;51982;51.042;13.806;2022-08-05T14:26:15;5.85;;;2.30;;
65377;SDS011;51982;51.042;13.806;2022-08-05T14:28:40;3.75;;;2.00;;
65377;SDS011;51982;51.042;13.806;2022-08-05T14:31:06;5.25;;;1.90;;
65377;SDS011;51982;51.042;13.806;2022-08-05T14:33:32;2.72;;;1.70;;
65377;SDS011;51982;51.042;13.806;2022-08-05T14:35:57;5.63;;;2.00;;
65377;SDS011;51982;51.042;13.806;2022-08-05T14:38:23;4.78;;;2.17;;
65377;SDS011;51982;51.042;13.806;2022-08-05T14:40:48;2.40;;;1.80;;
65377;SDS011;51982;51.042;13.806;2022-08-05T14:43:13;6.33;;;1.93;;
65377;SDS011;51982;51.042;13.806;2022-08-05T14:45:39;2.57;;;2.00;;
65377;SDS011;51982;51.042;13.806;2022-08-05T14:48:04;4.43;;;2.20;;
65377;SDS011;51982;51.042;13.806;2022-08-05T14:50:29;4.95;;;1.88;;
65377;SDS011;51982;51.042;13.806;2022-08-05T14:52:54;5.63;;;2.10;;
65377;SDS011;51982;51.042;13.806;2022-08-05T14:55:23;5.53;;;2.17;;
65377;SDS011;51982;51.042;13.806;2022-08-05T14:57:49;3.38;;;2.10;;
65377;SDS011;51982;51.042;13.806;2022-08-05T15:00:15;3.00;;;2.00;;
65377;SDS011;51982;51.042;13.806;2022-08-05T15:02:40;6.38;;;2.00;;
65377;SDS011;51982;51.042;13.806;2022-08-05T15:05:05;6.43;;;2.13;;
65377;SDS011;51982;51.042;13.806;2022-08-05T15:07:31;7.57;;;2.13;;
65377;SDS011;51982;51.042;13.806;2022-08-05T15:09:56;3.00;;;1.90;;
65377;SDS011;51982;51.042;13.806;2022-08-05T15:12:21;4.90;;;1.90;;